Time;durP1;ratioP1;P1;durP2;ratioP2;P2;SDS_P1;SDS_P2;PMS_P1;PMS_P2;Temp;Humidity;BMP_temperature;BMP_pressure;BME280_temperature;BME280_humidity;BME280_pressure;Samples;Min_cycle;Max_cycle;Signal;HPM_P1;HPM_P2
2024/02/28 00:01:07;;;;;;;13.82;6.70;;;;;;;2.36;100.00;101685.03;6203282;28;20057;-80
2024/02/28 00:04:08;;;;;;;20.05;8.15;;;;;;;2.40;100.00;101689.31;6202695;28;20054;-80
2024/02/28 00:07:10;;;;;;;16.90;7.13;;;;;;;2.47;100.00;101690.19;6194911;28;20042;-81
2024/02/28 00:10:12;;;;;;;18.45;7.47;;;;;;;2.41;100.00;101688.47;6202365;28;20054;-80
2024/02/28 00:13:15;;;;;;;19.02;8.32;;;;;;;2.40;100.00;101693.66;6202998;28;20053;-81
2024/02/28 00:16:16;;;;;;;22.70;8.10;;;;;;;2.41;100.00;101687.63;6202502;28;20050;-79
2024/02/28 00:19:18;;;;;;;18.30;7.03;;;;;;;2.27;100.00;101690.25;6202741;28;20046;-78
2024/02/28 00:22:21;;;;;;;23.23;9.45;;;;;;;2.20;100.00;101685.97;6218643;28;20513;-81
2024/02/28 00:25:22;;;;;;;17.92;8.05;;;;;;;2.20;100.00;101684.22;6225046;28;20057;-82
2024/02/28 00:28:24;;;;;;;19.02;7.90;;;;;;;2.13;100.00;101671.28;6210365;28;20077;-79
2024/02/28 00:31:25;;;;;;;20.45;8.82;;;;;;;2.10;100.00;101673.91;6201537;28;20050;-81
2024/02/28 00:34:27;;;;;;;16.10;7.35;;;;;;;2.10;100.00;101672.19;6202074;28;20053;-79
2024/02/28 00:37:29;;;;;;;17.42;8.10;;;;;;;2.02;100.00;101672.19;6202202;28;20470;-78
2024/02/28 00:40:31;;;;;;;20.55;8.55;;;;;;;1.97;100.00;101675.69;6212398;28;20060;-79
2024/02/28 00:43:32;;;;;;;21.77;9.18;;;;;;;1.88;100.00;101675.69;6226853;28;20068;-81
2024/02/28 00:46:33;;;;;;;27.35;9.43;;;;;;;1.88;100.00;101686.06;6226140;28;20053;-80
2024/02/28 00:49:35;;;;;;;21.08;7.70;;;;;;;1.85;100.00;101676.56;6226184;28;20050;-82
2024/02/28 00:52:37;;;;;;;23.05;8.55;;;;;;;1.81;100.00;101682.63;6226217;28;20050;-80
2024/02/28 00:55:39;;;;;;;24.48;8.05;;;;;;;1.81;100.00;101679.16;6209863;28;20057;-81
2024/02/28 00:58:40;;;;;;;15.38;6.95;;;;;;;1.78;100.00;101677.47;6205415;28;20457;-81
2024/02/28 01:01:42;;;;;;;19.58;8.07;;;;;;;1.71;100.00;101675.72;6218151;28;20060;-81
2024/02/28 01:04:43;;;;;;;18.85;7.25;;;;;;;1.76;100.00;101677.44;6201489;28;20046;-79
2024/02/28 01:07:46;;;;;;;22.80;8.77;;;;;;;1.71;100.00;101675.72;6201826;28;20049;-78
2024/02/28 01:10:47;;;;;;;23.20;8.65;;;;;;;1.58;100.00;101672.28;6209512;28;20073;-79
2024/02/28 01:13:49;;;;;;;18.95;7.75;;;;;;;1.52;100.00;101668.00;6206768;28;20061;-79
2024/02/28 01:16:50;;;;;;;15.55;7.50;;;;;;;1.51;100.00;101674.03;6225881;28;20042;-79
2024/02/28 01:19:51;;;;;;;23.20;9.32;;;;;;;1.52;100.00;101686.13;6225302;28;20449;-79
2024/02/28 01:22:54;;;;;;;19.00;7.93;;;;;;;1.53;100.00;101680.06;6226118;28;20053;-79
2024/02/28 01:25:55;;;;;;;22.08;9.40;;;;;;;1.59;100.00;101674.03;6203388;28;20057;-79
2024/02/28 01:28:57;;;;;;;22.80;8.35;;;;;;;1.56;100.00;101671.44;6223558;28;20386;-79
2024/02/28 01:31:58;;;;;;;19.02;8.60;;;;;;;1.56;100.00;101668.84;6219404;28;20058;-80
2024/02/28 01:34:59;;;;;;;18.95;7.72;;;;;;;1.49;100.00;101662.81;6207961;28;20050;-79
2024/02/28 01:38:02;;;;;;;19.65;7.88;;;;;;;1.44;100.00;101656.78;6202313;28;20046;-79
2024/02/28 01:41:05;;;;;;;16.98;8.07;;;;;;;1.41;100.00;101661.09;6224071;28;20397;-80
2024/02/28 01:44:06;;;;;;;20.73;7.88;;;;;;;1.42;100.00;101660.25;6228017;28;20558;-80
2024/02/28 01:47:07;;;;;;;16.70;7.35;;;;;;;1.42;100.00;101655.94;6230490;28;20046;-79
2024/02/28 01:50:10;;;;;;;19.85;8.52;;;;;;;1.47;100.00;101659.38;6230344;28;20058;-80
2024/02/28 01:53:13;;;;;;;21.77;8.68;;;;;;;1.40;100.00;101662.81;6233085;23;20051;-78
2024/02/28 01:56:15;;;;;;;21.05;7.22;;;;;;;1.39;100.00;101673.19;6229484;28;20051;-78
2024/02/28 01:59:18;;;;;;;22.88;7.60;;;;;;;1.44;100.00;101667.13;6229257;28;20427;-78
2024/02/28 02:02:19;;;;;;;20.00;7.78;;;;;;;1.37;100.00;101652.47;6245400;28;20335;-78
2024/02/28 02:05:21;;;;;;;23.35;8.50;;;;;;;1.36;100.00;101652.47;6253894;28;20056;-78
2024/02/28 02:08:24;;;;;;;19.80;8.43;;;;;;;1.35;100.00;101661.97;6253856;28;20106;-78
2024/02/28 02:11:25;;;;;;;19.70;8.80;;;;;;;1.27;100.00;101653.31;6254012;28;20049;-78
2024/02/28 02:14:27;;;;;;;22.15;7.45;;;;;;;1.32;100.00;101643.84;6254017;28;20615;-78
2024/02/28 02:17:28;;;;;;;16.58;7.35;;;;;;;1.29;100.00;101650.75;6254074;28;20053;-78
2024/02/28 02:20:33;;;;;;;21.05;8.25;;;;;;;1.25;100.00;101649.88;6248826;28;20456;-78
2024/02/28 02:23:41;;;;;;;24.40;8.73;;;;;;;1.21;100.00;101642.97;6229511;28;20347;-79
2024/02/28 02:26:44;;;;;;;17.77;7.20;;;;;;;1.21;100.00;101656.78;6230380;28;20052;-79
2024/02/28 02:29:45;;;;;;;18.90;7.95;;;;;;;1.22;100.00;101657.66;6233826;28;20095;-78
2024/02/28 02:32:47;;;;;;;17.85;7.47;;;;;;;1.19;100.00;101655.94;6228931;28;20050;-78
2024/02/28 02:35:48;;;;;;;25.73;7.72;;;;;;;1.20;100.00;101649.88;6234105;28;20518;-78
2024/02/28 02:38:51;;;;;;;16.63;6.78;;;;;;;1.21;100.00;101645.56;6230788;28;20046;-79
2024/02/28 02:41:52;;;;;;;19.13;8.18;;;;;;;1.21;100.00;101645.56;6228999;28;20588;-79
2024/02/28 02:44:54;;;;;;;18.40;8.02;;;;;;;1.18;100.00;101655.91;6228693;28;20046;-78
2024/02/28 02:47:55;;;;;;;22.10;8.65;;;;;;;1.18;100.00;101661.09;6230904;28;20042;-78
2024/02/28 02:50:56;;;;;;;28.75;10.30;;;;;;;1.20;100.00;101662.84;6236077;28;20504;-78
2024/02/28 02:53:59;;;;;;;16.38;7.88;;;;;;;1.21;100.00;101656.78;6232156;28;20057;-78
2024/02/28 02:57:00;;;;;;;20.52;8.38;;;;;;;1.15;100.00;101656.81;6227674;28;20132;-78
2024/02/28 03:00:02;;;;;;;18.92;7.25;;;;;;;1.18;100.00;101666.28;6227896;28;20073;-78
2024/02/28 03:03:05;;;;;;;18.35;7.95;;;;;;;1.15;100.00;101681.81;6228445;28;20054;-78
2024/02/28 03:06:07;;;;;;;18.48;7.97;;;;;;;1.12;100.00;101669.72;6232002;28;20049;-78
2024/02/28 03:09:09;;;;;;;17.58;7.15;;;;;;;1.10;100.00;101674.06;6228457;28;20058;-78
2024/02/28 03:12:11;;;;;;;18.92;8.88;;;;;;;1.04;100.00;101678.34;6227951;28;20053;-78
2024/02/28 03:15:12;;;;;;;21.92;9.00;;;;;;;1.07;100.00;101675.78;6227944;28;20065;-78
2024/02/28 03:18:13;;;;;;;22.00;10.02;;;;;;;1.05;100.00;101680.09;6227499;28;20061;-78
2024/02/28 03:21:14;;;;;;;29.05;9.18;;;;;;;1.05;100.00;101686.13;6235914;28;20358;-78
2024/02/28 03:24:18;;;;;;;24.38;9.00;;;;;;;1.07;100.00;101684.41;6227541;28;20050;-78
2024/02/28 03:27:19;;;;;;;20.23;8.95;;;;;;;1.04;100.00;101675.75;6228069;28;20048;-78
2024/02/28 03:30:20;;;;;;;17.45;8.15;;;;;;;0.99;100.00;101675.75;6227382;28;20359;-78
2024/02/28 03:33:21;;;;;;;20.15;9.38;;;;;;;0.98;100.00;101679.22;6227579;28;20059;-77
2024/02/28 03:36:23;;;;;;;22.50;7.93;;;;;;;0.97;100.00;101670.59;6241806;28;20049;-78
2024/02/28 03:39:25;;;;;;;19.10;8.38;;;;;;;0.94;100.00;101674.91;6227187;28;20046;-78
2024/02/28 03:42:27;;;;;;;15.90;7.53;;;;;;;0.95;100.00;101671.44;6237405;28;20053;-78
2024/02/28 03:45:29;;;;;;;19.73;8.32;;;;;;;0.98;100.00;101667.13;6227351;28;20058;-78
2024/02/28 03:48:30;;;;;;;26.70;9.10;;;;;;;0.99;100.00;101668.00;6228628;28;20057;-78
2024/02/28 03:51:32;;;;;;;21.20;9.00;;;;;;;0.98;100.00;101671.44;6251452;28;20179;-79
2024/02/28 03:54:34;;;;;;;23.23;8.43;;;;;;;0.83;100.00;101671.44;6251348;28;20049;-78
2024/02/28 03:57:36;;;;;;;20.15;9.40;;;;;;;0.89;100.00;101680.06;6252012;28;20050;-78
2024/02/28 04:00:37;;;;;;;18.23;7.63;;;;;;;0.97;100.00;101690.44;6251189;28;20049;-78
2024/02/28 04:03:39;;;;;;;27.50;9.18;;;;;;;1.04;100.00;101686.97;6251512;28;20057;-78
2024/02/28 04:06:40;;;;;;;19.40;7.80;;;;;;;1.13;100.00;101692.16;6251335;28;20042;-78
2024/02/28 04:09:43;;;;;;;16.02;7.80;;;;;;;1.13;100.00;101699.94;6250857;28;20049;-78
2024/02/28 04:12:45;;;;;;;22.83;9.00;;;;;;;1.17;100.00;101698.22;6251220;28;20037;-78
2024/02/28 04:15:46;;;;;;;22.00;8.73;;;;;;;1.26;100.00;101705.97;6251224;28;20045;-78
2024/02/28 04:18:48;;;;;;;20.73;8.57;;;;;;;1.29;100.00;101695.63;6250531;28;20045;-78
2024/02/28 04:21:49;;;;;;;18.60;8.18;;;;;;;1.33;100.00;101704.28;6237675;28;20050;-78
2024/02/28 04:24:52;;;;;;;22.83;9.43;;;;;;;1.40;100.00;101700.81;6226460;28;20049;-78
2024/02/28 04:27:53;;;;;;;21.13;9.20;;;;;;;1.48;100.00;101702.53;6232521;28;20434;-78
2024/02/28 04:30:54;;;;;;;25.50;9.25;;;;;;;1.46;100.00;101699.09;6226002;28;20049;-78
2024/02/28 04:33:56;;;;;;;35.42;10.68;;;;;;;1.39;100.00;101692.16;6226169;28;20061;-78
2024/02/28 04:36:57;;;;;;;27.33;11.05;;;;;;;1.37;100.00;101695.66;6226103;28;20050;-78
2024/02/28 04:40:00;;;;;;;25.05;10.02;;;;;;;1.43;100.00;101698.22;6229528;28;20049;-78
2024/02/28 04:43:01;;;;;;;24.85;10.35;;;;;;;1.45;100.00;101702.56;6228724;28;20050;-78
2024/02/28 04:46:03;;;;;;;31.30;11.27;;;;;;;1.46;100.00;101700.81;6225951;28;20054;-78
2024/02/28 04:49:05;;;;;;;29.73;10.93;;;;;;;1.43;100.00;101700.81;6225541;28;20045;-78
2024/02/28 04:52:07;;;;;;;28.25;10.93;;;;;;;1.51;100.00;101707.72;6226012;28;20050;-78
2024/02/28 04:55:10;;;;;;;26.67;10.05;;;;;;;1.58;100.00;101716.31;6225711;28;20054;-78
2024/02/28 04:58:11;;;;;;;35.63;12.18;;;;;;;1.64;100.00;101716.34;6225759;28;20042;-78
2024/02/28 05:01:13;;;;;;;27.00;10.85;;;;;;;1.63;100.00;101712.00;6226102;28;20054;-78
2024/02/28 05:04:14;;;;;;;30.02;11.50;;;;;;;1.66;100.00;101721.50;6225495;28;20128;-78
2024/02/28 05:07:15;;;;;;;25.40;10.63;;;;;;;1.71;100.00;101727.56;6242257;28;20045;-78
2024/02/28 05:10:18;;;;;;;32.90;10.90;;;;;;;1.75;100.00;101724.97;6249620;28;20056;-78
2024/02/28 05:13:19;;;;;;;30.55;11.80;;;;;;;1.75;100.00;101727.53;6241990;28;20057;-78
2024/02/28 05:16:21;;;;;;;27.95;11.18;;;;;;;1.70;100.00;101736.19;6249785;28;20060;-78
2024/02/28 05:19:22;;;;;;;36.15;12.40;;;;;;;1.70;100.00;101737.06;6252675;28;20041;-78
2024/02/28 05:22:24;;;;;;;28.42;12.48;;;;;;;1.71;100.00;101741.38;6254993;28;20180;-78
2024/02/28 05:25:27;;;;;;;31.40;13.52;;;;;;;1.67;100.00;101741.38;6254931;28;20049;-78
2024/02/28 05:28:28;;;;;;;34.03;12.38;;;;;;;1.72;100.00;101739.63;6254569;28;20220;-78
2024/02/28 05:31:31;;;;;;;34.08;13.23;;;;;;;1.71;100.00;101740.50;6255281;28;20057;-79
2024/02/28 05:34:32;;;;;;;26.13;11.55;;;;;;;1.68;100.00;101738.81;6254504;28;20054;-78
2024/02/28 05:37:34;;;;;;;31.35;13.00;;;;;;;1.63;100.00;101737.91;6254625;28;20045;-78
2024/02/28 05:40:37;;;;;;;31.52;13.15;;;;;;;1.66;100.00;101734.47;6246034;28;20060;-78
2024/02/28 05:43:38;;;;;;;31.27;11.20;;;;;;;1.68;100.00;101737.91;6254591;28;20373;-78
2024/02/28 05:46:40;;;;;;;33.42;12.38;;;;;;;1.68;100.00;101740.50;6254442;28;20048;-78
2024/02/28 05:49:42;;;;;;;31.63;12.57;;;;;;;1.63;100.00;101737.06;6253948;28;20049;-78
2024/02/28 05:52:43;;;;;;;33.45;14.38;;;;;;;1.62;100.00;101749.16;6254460;28;20434;-78
2024/02/28 05:55:46;;;;;;;31.42;13.02;;;;;;;1.63;100.00;101750.00;6254244;28;20042;-78
2024/02/28 05:58:48;;;;;;;32.40;12.82;;;;;;;1.56;100.00;101750.88;6253277;28;20048;-78
2024/02/28 06:01:50;;;;;;;31.10;11.30;;;;;;;1.60;100.00;101750.88;6253660;28;20449;-78
2024/02/28 06:04:51;;;;;;;31.63;13.07;;;;;;;1.58;100.00;101755.19;6253793;28;20056;-78
2024/02/28 06:07:52;;;;;;;32.67;12.45;;;;;;;1.51;100.00;101758.66;6254240;28;20128;-78
2024/02/28 06:10:55;;;;;;;33.10;12.18;;;;;;;1.48;100.00;101769.88;6253736;28;20052;-78
2024/02/28 06:13:56;;;;;;;34.17;12.73;;;;;;;1.52;100.00;101769.00;6253916;28;20462;-78
2024/02/28 06:16:58;;;;;;;36.47;14.20;;;;;;;1.55;100.00;101780.25;6253769;28;20057;-78
2024/02/28 06:19:59;;;;;;;30.17;12.02;;;;;;;1.47;100.00;101783.69;6253060;28;20445;-78
2024/02/28 06:23:00;;;;;;;31.30;13.23;;;;;;;1.49;100.00;101788.84;6232858;28;20054;-78
2024/02/28 06:26:03;;;;;;;30.88;13.40;;;;;;;1.48;100.00;101798.34;6229418;28;20054;-78
2024/02/28 06:29:06;;;;;;;28.70;12.18;;;;;;;1.48;100.00;101792.31;6228001;28;20052;-78
2024/02/28 06:32:07;;;;;;;36.28;13.27;;;;;;;1.49;100.00;101802.66;6228559;28;20049;-78
2024/02/28 06:35:10;;;;;;;34.33;12.85;;;;;;;1.41;100.00;101819.06;6232876;28;20612;-78
2024/02/28 06:38:11;;;;;;;36.67;13.68;;;;;;;1.44;100.00;101806.13;6228558;28;20160;-78
2024/02/28 06:41:14;;;;;;;31.98;14.35;;;;;;;1.41;100.00;101812.19;6228702;28;20469;-78
2024/02/28 06:44:16;;;;;;;33.92;13.90;;;;;;;1.45;100.00;101813.03;6231007;28;20056;-78
2024/02/28 06:47:18;;;;;;;34.67;13.70;;;;;;;1.47;100.00;101827.72;6235079;28;20081;-78
2024/02/28 06:50:19;;;;;;;42.55;15.45;;;;;;;1.50;100.00;101822.56;6228027;28;20060;-78
2024/02/28 06:53:20;;;;;;;37.50;15.55;;;;;;;1.52;100.00;101822.53;6228598;28;20350;-78
2024/02/28 06:56:23;;;;;;;40.10;14.52;;;;;;;1.62;100.00;101826.00;6228241;28;20060;-78
2024/02/28 06:59:24;;;;;;;41.33;15.20;;;;;;;1.65;100.00;101834.66;6228118;28;20042;-79
2024/02/28 07:02:26;;;;;;;37.42;16.00;;;;;;;1.79;100.00;101829.47;6228153;28;20057;-79
2024/02/28 07:05:27;;;;;;;40.42;14.73;;;;;;;1.87;100.00;101832.09;6228166;28;20056;-79
2024/02/28 07:08:29;;;;;;;41.22;15.52;;;;;;;1.94;100.00;101829.47;6227827;28;20054;-79
2024/02/28 07:11:31;;;;;;;42.47;16.00;;;;;;;1.90;100.00;101832.06;6228339;28;20053;-79
2024/02/28 07:14:33;;;;;;;38.63;14.85;;;;;;;1.87;100.00;101835.53;6227897;28;20054;-78
2024/02/28 07:17:34;;;;;;;45.58;15.70;;;;;;;1.72;100.00;101831.19;6228022;28;20358;-70
2024/02/28 07:20:35;;;;;;;38.17;16.00;;;;;;;1.94;100.00;101833.78;6227488;28;20056;-78
2024/02/28 07:23:40;;;;;;;42.95;15.95;;;;;;;2.09;100.00;101848.47;6231168;28;20052;-78
2024/02/28 07:26:42;;;;;;;36.90;15.65;;;;;;;2.04;100.00;101845.88;6227590;28;20042;-78
2024/02/28 07:29:44;;;;;;;46.85;15.02;;;;;;;2.13;100.00;101839.81;6227212;28;20046;-78
2024/02/28 07:32:45;;;;;;;45.05;15.35;;;;;;;2.26;100.00;101841.53;6227739;28;20075;-78
2024/02/28 07:35:46;;;;;;;40.65;15.75;;;;;;;2.42;100.00;101840.66;6227304;28;20057;-78
2024/02/28 07:38:48;;;;;;;44.28;17.52;;;;;;;2.47;100.00;101833.72;6239243;28;20048;-78
2024/02/28 07:41:51;;;;;;;42.88;16.80;;;;;;;2.60;100.00;101837.16;6226995;28;20442;-78
2024/02/28 07:44:56;;;;;;;47.90;16.75;;;;;;;2.54;100.00;101839.75;6227427;28;20511;-78
2024/02/28 07:47:57;;;;;;;41.28;15.88;;;;;;;2.74;100.00;101839.69;6227243;28;20042;-78
2024/02/28 07:50:59;;;;;;;50.63;18.10;;;;;;;2.79;100.00;101840.53;6226825;28;20050;-73
2024/02/28 07:54:00;;;;;;;39.95;16.15;;;;;;;2.90;100.00;101840.50;6227158;28;20365;-77
2024/02/28 07:57:07;;;;;;;44.40;17.05;;;;;;;2.98;100.00;101846.53;6235105;28;20073;-77
2024/02/28 08:00:13;;;;;;;44.88;16.35;;;;;;;3.11;100.00;101840.41;6233538;28;20506;-80
2024/02/28 08:03:14;;;;;;;41.35;15.32;;;;;;;3.23;100.00;101842.09;6239148;28;20045;-80
2024/02/28 08:06:17;;;;;;;47.42;17.38;;;;;;;3.23;100.00;101840.34;6248688;28;20058;-78
2024/02/28 08:09:19;;;;;;;54.60;18.85;;;;;;;3.20;100.00;101839.50;6229869;28;20053;-79
2024/02/28 08:12:22;;;;;;;48.97;19.52;;;;;;;3.19;100.00;101841.25;6228236;28;20465;-79
2024/02/28 08:15:23;;;;;;;45.50;17.40;;;;;;;3.10;100.00;101833.50;6226546;28;20054;-78
2024/02/28 08:18:24;;;;;;;55.88;18.30;;;;;;;2.80;100.00;101848.31;6233733;28;20049;-79
2024/02/28 08:21:26;;;;;;;51.05;18.40;;;;;;;2.66;100.00;101850.09;6239307;28;20137;-80
2024/02/28 08:24:27;;;;;;;51.13;18.80;;;;;;;2.71;100.00;101863.06;6226474;28;20081;-78
2024/02/28 08:27:30;;;;;;;55.10;18.10;;;;;;;2.79;100.00;101856.13;6226468;28;20046;-77
2024/02/28 08:30:33;;;;;;;48.42;17.67;;;;;;;2.84;100.00;101851.78;6239943;28;20053;-79
2024/02/28 08:33:35;;;;;;;40.63;16.40;;;;;;;2.77;100.00;101856.13;6245037;28;20045;-79
2024/02/28 08:36:37;;;;;;;51.35;19.00;;;;;;;2.80;100.00;101856.09;6234317;28;20054;-79
2024/02/28 08:39:38;;;;;;;47.97;18.48;;;;;;;2.75;100.00;101860.44;6228305;28;20073;-76
2024/02/28 08:42:41;;;;;;;55.00;17.58;;;;;;;2.84;100.00;101867.34;6226114;28;20193;-77
2024/02/28 08:45:42;;;;;;;49.97;16.30;;;;;;;2.94;100.00;101876.81;6229037;28;20382;-79
2024/02/28 08:48:44;;;;;;;54.13;18.25;;;;;;;3.05;100.00;101877.66;6227301;28;20045;-78
2024/02/28 08:51:45;;;;;;;51.78;17.70;;;;;;;3.03;100.00;101878.53;6225915;28;20072;-79
2024/02/28 08:54:47;;;;;;;57.08;18.90;;;;;;;3.04;100.00;101877.66;6225834;28;20054;-78
2024/02/28 08:57:50;;;;;;;54.25;19.55;;;;;;;3.11;100.00;101886.28;6226246;28;20049;-78
2024/02/28 09:00:51;;;;;;;58.80;19.50;;;;;;;3.16;100.00;101895.78;6225231;28;20049;-79
2024/02/28 09:03:53;;;;;;;55.58;18.85;;;;;;;2.97;100.00;101891.53;6237210;28;20330;-80
2024/02/28 09:06:54;;;;;;;50.55;17.90;;;;;;;2.98;100.00;101894.13;6229155;28;20133;-80
2024/02/28 09:09:56;;;;;;;51.80;19.00;;;;;;;3.09;100.00;101899.28;6237741;28;20053;-78
2024/02/28 09:12:58;;;;;;;56.03;18.08;;;;;;;3.04;100.00;101898.41;6229221;28;20053;-78
2024/02/28 09:16:00;;;;;;;61.28;19.15;;;;;;;2.96;100.00;101908.84;6225437;28;20378;-79
2024/02/28 09:19:01;;;;;;;56.22;20.23;;;;;;;3.09;100.00;101908.78;6225147;28;20331;-79
2024/02/28 09:22:02;;;;;;;58.72;17.73;;;;;;;3.05;100.00;101908.81;6225600;28;20058;-79
2024/02/28 09:25:04;;;;;;;55.83;20.23;;;;;;;2.94;100.00;101896.72;6225518;28;20050;-79
2024/02/28 09:28:08;;;;;;;56.58;17.92;;;;;;;3.05;100.00;101901.03;6228370;28;20053;-79
2024/02/28 09:31:10;;;;;;;49.53;17.35;;;;;;;3.11;100.00;101894.09;6227773;28;20518;-78
2024/02/28 09:34:11;;;;;;;48.30;17.83;;;;;;;3.23;100.00;101900.09;6225190;28;20521;-79
2024/02/28 09:37:13;;;;;;;57.03;17.95;;;;;;;3.31;100.00;101906.09;6225698;28;20054;-80
2024/02/28 09:40:14;;;;;;;55.42;18.42;;;;;;;3.44;100.00;101911.25;6224833;28;20050;-79
2024/02/28 09:43:25;;;;;;;53.22;16.50;;;;;;;3.41;100.00;101917.34;6225247;28;20061;-81
2024/02/28 09:46:26;;;;;;;63.40;19.90;;;;;;;3.34;100.00;101922.56;6242322;28;20053;-79
2024/02/28 09:49:29;;;;;;;53.83;17.85;;;;;;;3.44;100.00;101914.69;6239873;28;20050;-79
2024/02/28 09:52:31;;;;;;;55.90;19.23;;;;;;;3.56;100.00;101914.63;6225147;28;20057;-79
2024/02/28 09:55:32;;;;;;;56.63;17.77;;;;;;;3.61;100.00;101921.56;6226434;28;20072;-79
2024/02/28 09:58:37;;;;;;;50.97;16.92;;;;;;;3.56;100.00;101917.25;6231355;28;20046;-79
2024/02/28 10:01:44;;;;;;;55.13;17.38;;;;;;;3.79;100.00;101918.84;6225123;28;20054;-80
2024/02/28 10:04:45;;;;;;;58.33;19.08;;;;;;;3.99;100.00;101921.28;6226863;28;20048;-80
2024/02/28 10:07:47;;;;;;;67.55;20.38;;;;;;;3.99;100.00;101910.88;6236609;28;20049;-80
2024/02/28 10:10:49;;;;;;;56.13;17.60;;;;;;;4.17;100.00;101917.69;6230538;28;20046;-80
2024/02/28 10:13:55;;;;;;;59.72;18.30;;;;;;;4.31;100.00;101919.31;6237250;28;20450;-80
2024/02/28 10:16:56;;;;;;;57.97;19.27;;;;;;;4.36;100.00;101923.59;6238994;28;20074;-81
2024/02/28 10:19:59;;;;;;;58.10;18.77;;;;;;;4.24;100.00;101927.19;6230873;28;20497;-80
2024/02/28 10:23:04;;;;;;;56.60;18.65;;;;;;;4.40;100.00;101928.75;6229135;28;20362;-81
2024/02/28 10:26:06;;;;;;;59.88;17.63;;;;;;;4.39;100.00;101923.59;6235226;28;20049;-82
2024/02/28 10:29:09;;;;;;;55.83;17.50;;;;;;;4.36;100.00;101931.41;6230103;28;20057;-79
2024/02/28 10:32:11;;;;;;;56.78;17.65;;;;;;;4.52;100.00;101933.00;6229143;28;20053;-79
2024/02/28 10:35:14;;;;;;;57.90;17.38;;;;;;;4.60;100.00;101922.53;6228766;28;20046;-79
2024/02/28 10:38:15;;;;;;;56.72;18.17;;;;;;;4.58;100.00;101928.59;6228581;28;20046;-80
2024/02/28 10:41:18;;;;;;;50.90;17.17;;;;;;;4.51;100.00;101929.53;6234691;28;20068;-79
2024/02/28 10:44:22;;;;;;;47.72;17.02;;;;;;;4.64;100.00;101939.84;6228691;28;20058;-80
2024/02/28 10:47:24;;;;;;;50.90;16.00;;;;;;;4.65;100.00;101939.84;6245301;28;20082;-80
2024/02/28 10:50:25;;;;;;;55.15;16.65;;;;;;;4.68;100.00;101933.72;6252627;28;20346;-81
2024/02/28 10:53:37;;;;;;;57.58;18.58;;;;;;;4.74;100.00;101937.13;6252970;28;20057;-80
2024/02/28 10:56:39;;;;;;;51.38;17.35;;;;;;;4.85;100.00;101939.63;6252986;28;20061;-81
2024/02/28 10:59:45;;;;;;;48.10;17.25;;;;;;;4.96;100.00;101936.91;6252430;28;20042;-80
2024/02/28 11:02:47;;;;;;;45.83;16.98;;;;;;;5.02;100.00;101936.84;6242139;28;20056;-80
2024/02/28 11:05:49;;;;;;;48.38;16.42;;;;;;;5.06;100.00;101942.00;6238416;28;20046;-79
2024/02/28 11:08:54;;;;;;;42.53;14.45;;;;;;;5.06;100.00;101936.78;6236500;28;20442;-78
2024/02/28 11:11:55;;;;;;;51.08;16.65;;;;;;;5.11;100.00;101939.34;6230387;28;20053;-78
2024/02/28 11:15:00;;;;;;;53.70;16.10;;;;;;;5.16;100.00;101944.50;6232038;28;20050;-78
2024/02/28 11:18:09;;;;;;;46.08;14.88;;;;;;;5.13;100.00;101940.16;6234606;28;20057;-78
2024/02/28 11:21:16;;;;;;;54.17;15.93;;;;;;;5.24;100.00;101946.13;6227919;28;20069;-79
2024/02/28 11:24:18;;;;;;;51.88;18.10;;;;;;;5.34;100.00;101945.13;6227898;28;20049;-79
2024/02/28 11:27:19;;;;;;;47.42;16.15;;;;;;;5.41;100.00;101945.06;6235486;28;20050;-80
2024/02/28 11:30:22;;;;;;;40.63;15.27;;;;;;;5.48;100.00;101944.97;6233388;28;20054;-70
2024/02/28 11:33:24;;;;;;;55.47;16.38;;;;;;;5.51;100.00;101944.94;6227435;28;20112;-82
2024/02/28 11:36:25;;;;;;;54.97;17.50;;;;;;;5.55;100.00;101944.00;6229907;28;20054;-78
2024/02/28 11:39:26;;;;;;;50.50;15.63;;;;;;;5.65;100.00;101942.13;6230979;28;20049;-79
2024/02/28 11:42:28;;;;;;;59.10;17.70;;;;;;;5.85;100.00;101950.53;6232810;28;20049;-78
2024/02/28 11:45:31;;;;;;;53.45;16.73;;;;;;;5.84;100.00;101950.56;6233226;28;20458;-80
2024/02/28 11:48:32;;;;;;;56.08;16.65;;;;;;;5.91;100.00;101949.59;6229796;28;20050;-79
2024/02/28 11:51:34;;;;;;;48.55;16.27;;;;;;;6.00;100.00;101951.25;6226682;28;20050;-80
2024/02/28 11:54:35;;;;;;;47.10;15.73;;;;;;;6.02;100.00;101942.50;6230497;28;20050;-77
2024/02/28 11:57:37;;;;;;;45.92;15.00;;;;;;;5.95;100.00;101940.88;6226729;28;20358;-78
2024/02/28 12:00:48;;;;;;;56.17;16.73;;;;;;;5.80;100.00;101926.25;6242553;28;20048;-79
2024/02/28 12:03:52;;;;;;;46.60;15.75;;;;;;;5.91;100.00;101933.09;6231971;28;20449;-80
2024/02/28 12:06:53;;;;;;;52.17;16.58;;;;;;;6.15;100.00;101914.47;6233656;28;20456;-77
2024/02/28 12:09:54;;;;;;;49.75;16.45;;;;;;;6.18;100.00;101919.66;6226287;28;20037;-78
2024/02/28 12:13:00;;;;;;;50.30;15.77;;;;;;;6.28;100.00;101922.97;6226507;28;20054;-76
2024/02/28 12:16:03;;;;;;;46.10;16.15;;;;;;;6.34;100.00;101921.09;6225755;28;20140;-77
2024/02/28 12:19:05;;;;;;;39.45;13.65;;;;;;;6.37;100.00;101927.16;6235384;28;20056;-78
2024/02/28 12:22:08;;;;;;;36.85;15.65;;;;;;;6.27;100.00;101922.09;6229131;28;20057;-77
2024/02/28 12:25:10;;;;;;;49.97;18.15;;;;;;;6.37;100.00;101922.81;6229719;28;20366;-78
2024/02/28 12:28:13;;;;;;;55.15;16.20;;;;;;;6.35;100.00;101911.50;6233911;28;20054;-77
2024/02/28 12:31:15;;;;;;;50.17;16.50;;;;;;;6.37;100.00;101912.38;6226711;28;20358;-78
2024/02/28 12:34:17;;;;;;;48.55;15.25;;;;;;;6.42;100.00;101900.09;6233267;28;20053;-77
2024/02/28 12:37:18;;;;;;;49.17;15.77;;;;;;;6.51;100.00;101905.16;6239545;28;20457;-79
2024/02/28 12:40:19;;;;;;;45.53;15.80;;;;;;;6.62;100.00;101897.09;6226287;28;20045;-77
2024/02/28 12:43:21;;;;;;;40.17;14.30;;;;;;;6.33;100.00;101906.31;6226238;28;20061;-77
2024/02/28 12:46:23;;;;;;;53.80;16.13;;;;;;;6.20;100.00;101896.97;6230788;28;20053;-77
2024/02/28 12:49:25;;;;;;;49.70;16.50;;;;;;;6.34;100.00;101897.59;6237802;28;20439;-77
2024/02/28 12:52:26;;;;;;;51.70;16.10;;;;;;;6.48;100.00;101893.88;6225797;28;20053;-77
2024/02/28 12:55:27;;;;;;;42.88;14.55;;;;;;;6.65;100.00;101896.19;6229331;28;20053;-77
2024/02/28 12:58:29;;;;;;;46.83;15.85;;;;;;;6.82;100.00;101889.78;6225392;28;20050;-77
2024/02/28 13:01:32;;;;;;;44.95;16.95;;;;;;;6.86;100.00;101890.56;6238010;28;20052;-77
2024/02/28 13:04:33;;;;;;;43.08;16.02;;;;;;;6.80;100.00;101890.69;6225876;28;20061;-76
2024/02/28 13:07:36;;;;;;;40.55;14.35;;;;;;;6.88;100.00;101888.78;6232605;28;20050;-78
2024/02/28 13:10:40;;;;;;;51.42;15.82;;;;;;;6.95;100.00;101884.28;6225280;28;20045;-77
2024/02/28 13:13:42;;;;;;;47.13;16.00;;;;;;;7.04;100.00;101884.09;6232382;28;20050;-78
2024/02/28 13:16:45;;;;;;;48.42;16.45;;;;;;;7.15;100.00;101884.75;6225433;28;20057;-78
2024/02/28 13:19:46;;;;;;;45.13;16.70;;;;;;;7.14;100.00;101877.81;6228358;28;20049;-77
2024/02/28 13:22:48;;;;;;;42.67;14.57;;;;;;;7.24;100.00;101875.84;6225802;28;20049;-78
2024/02/28 13:25:49;;;;;;;43.08;15.45;;;;;;;7.27;100.00;101876.66;6228090;28;20053;-78
2024/02/28 13:28:50;;;;;;;47.90;15.65;;;;;;;7.31;100.00;101867.84;6226415;28;20434;-78
2024/02/28 13:31:53;;;;;;;45.38;14.65;;;;;;;7.22;100.00;101865.44;6226293;28;20409;-77
2024/02/28 13:34:54;;;;;;;35.47;14.07;;;;;;;7.23;100.00;101853.22;6229016;28;20053;-76
2024/02/28 13:37:59;;;;;;;38.40;12.85;;;;;;;7.17;100.00;101856.81;6229306;28;20065;-79
2024/02/28 13:41:01;;;;;;;46.42;14.38;;;;;;;7.19;100.00;101859.41;6240002;28;20052;-76
2024/02/28 13:44:02;;;;;;;43.45;13.13;;;;;;;7.23;100.00;101863.69;6231399;28;20057;-75
2024/02/28 13:47:06;;;;;;;37.40;12.02;;;;;;;7.09;100.00;101864.84;6232988;28;20139;-76
2024/02/28 13:50:09;;;;;;;47.97;14.13;;;;;;;6.97;100.00;101857.25;6233658;28;20042;-75